createdAt,value
2023-11-01T00:01:08.144Z,1.37
2023-11-01T00:03:37.523Z,1.27
2023-11-01T00:06:05.007Z,1.40
2023-11-01T00:08:32.142Z,1.35
2023-11-01T00:11:01.725Z,1.10
2023-11-01T00:13:28.861Z,1.13
2023-11-01T00:16:01.138Z,1.25
2023-11-01T00:18:31.283Z,1.02
2023-11-01T00:20:58.568Z,1.00
2023-11-01T00:23:25.938Z,0.93
2023-11-01T00:25:53.469Z,1.27
2023-11-01T00:28:20.590Z,1.00
2023-11-01T00:30:47.840Z,1.10
2023-11-01T00:33:15.111Z,1.17
2023-11-01T00:35:42.835Z,1.25
2023-11-01T00:38:10.126Z,1.48
2023-11-01T00:40:37.344Z,1.60
2023-11-01T00:43:05.220Z,1.20
2023-11-01T00:45:32.331Z,1.17
2023-11-01T00:47:59.646Z,1.20
2023-11-01T00:50:26.868Z,1.50
2023-11-01T00:52:54.048Z,1.02
2023-11-01T00:55:24.158Z,1.30
2023-11-01T00:57:51.362Z,1.15
2023-11-01T01:00:18.683Z,1.27
2023-11-01T01:02:46.016Z,1.20
2023-11-01T01:05:13.306Z,0.93
2023-11-01T01:07:40.740Z,1.10
2023-11-01T01:10:09.075Z,1.30
2023-11-01T01:12:36.328Z,1.23
2023-11-01T01:15:03.525Z,1.23
2023-11-01T01:17:33.248Z,1.15
2023-11-01T01:20:00.411Z,1.10
2023-11-01T01:22:27.588Z,1.30
2023-11-01T01:24:54.731Z,1.17
2023-11-01T01:27:21.917Z,1.10
2023-11-01T01:29:49.058Z,0.90
2023-11-01T01:32:19.340Z,1.20
2023-11-01T01:34:46.439Z,1.00
2023-11-01T01:37:16.396Z,1.13
2023-11-01T01:39:43.703Z,1.08
2023-11-01T01:42:10.886Z,1.13
2023-11-01T01:44:40.604Z,1.15
2023-11-01T01:47:07.814Z,1.30
2023-11-01T01:49:40.164Z,1.00
2023-11-01T01:52:12.937Z,1.20
2023-11-01T01:54:40.164Z,1.20
2023-11-01T01:57:07.545Z,1.05
2023-11-01T01:59:34.772Z,1.03
2023-11-01T02:02:02.390Z,1.20
2023-11-01T02:04:29.659Z,1.08
2023-11-01T02:07:00.084Z,1.10
2023-11-01T02:09:27.574Z,1.20
2023-11-01T02:11:54.767Z,1.10
2023-11-01T02:14:22.646Z,0.90
2023-11-01T02:16:51.549Z,0.97
2023-11-01T02:19:18.833Z,1.02
2023-11-01T02:21:51.496Z,1.20
2023-11-01T02:24:18.669Z,1.10
2023-11-01T02:26:45.760Z,1.10
2023-11-01T02:29:15.816Z,1.30
2023-11-01T02:31:43.050Z,1.10
2023-11-01T02:34:10.390Z,1.50
2023-11-01T02:36:37.615Z,1.33
2023-11-01T02:39:04.817Z,1.40
2023-11-01T02:41:32.012Z,1.50
2023-11-01T02:43:59.179Z,1.90
2023-11-01T02:46:26.292Z,1.67
2023-11-01T02:48:53.403Z,1.70
2023-11-01T02:51:20.509Z,1.60
2023-11-01T02:53:48.183Z,1.75
2023-11-01T02:56:15.339Z,2.00
2023-11-01T02:58:42.664Z,1.60
2023-11-01T03:01:11.187Z,1.60
2023-11-01T03:03:41.158Z,1.60
2023-11-01T03:06:08.457Z,1.67
2023-11-01T03:08:35.936Z,1.60
2023-11-01T03:11:03.122Z,2.00
2023-11-01T03:13:30.853Z,2.22
2023-11-01T03:16:01.017Z,1.77
2023-11-01T03:18:28.184Z,1.80
2023-11-01T03:20:59.689Z,1.83
2023-11-01T03:23:29.896Z,1.90
2023-11-01T03:26:02.600Z,2.15
2023-11-01T03:28:29.812Z,2.08
2023-11-01T03:31:00.231Z,2.33
2023-11-01T03:33:28.371Z,2.15
2023-11-01T03:35:55.524Z,2.03
2023-11-01T03:38:23.628Z,1.90
2023-11-01T03:40:51.924Z,2.00
2023-11-01T03:43:19.002Z,2.17
2023-11-01T03:45:46.175Z,2.00
2023-11-01T03:48:15.255Z,2.17
2023-11-01T03:50:42.675Z,2.10
2023-11-01T03:53:09.966Z,1.73
2023-11-01T03:55:39.944Z,1.90
2023-11-01T03:58:07.072Z,1.90
2023-11-01T04:00:34.324Z,1.85
2023-11-01T04:03:01.560Z,2.10
2023-11-01T04:05:31.083Z,1.98
2023-11-01T04:08:01.313Z,1.85
2023-11-01T04:10:28.692Z,1.90
2023-11-01T04:12:55.854Z,1.90
2023-11-01T04:15:22.955Z,1.98
2023-11-01T04:17:50.974Z,2.00
2023-11-01T04:20:20.370Z,2.20
2023-11-01T04:22:49.646Z,2.00
2023-11-01T04:25:16.866Z,2.25
2023-11-01T04:27:44.076Z,2.07
2023-11-01T04:30:11.675Z,2.38
2023-11-01T04:32:39.380Z,2.22
2023-11-01T04:35:12.964Z,2.17
2023-11-01T04:37:40.781Z,2.13
2023-11-01T04:40:08.414Z,2.10
2023-11-01T04:42:40.009Z,2.30
2023-11-01T04:45:08.040Z,2.17
2023-11-01T04:47:44.004Z,1.80
2023-11-01T04:50:12.242Z,2.45
2023-11-01T04:52:40.335Z,2.00
2023-11-01T04:55:07.975Z,1.90
2023-11-01T04:57:37.297Z,2.10
2023-11-01T05:00:10.088Z,1.80
2023-11-01T05:02:38.042Z,1.90
2023-11-01T05:05:07.597Z,1.92
2023-11-01T05:07:35.183Z,2.35
2023-11-01T05:10:03.934Z,1.60
2023-11-01T05:12:31.170Z,2.13
2023-11-01T05:14:58.846Z,1.90
2023-11-01T05:17:27.263Z,1.95
2023-11-01T05:19:54.499Z,2.13
2023-11-01T05:22:21.616Z,2.00
2023-11-01T05:24:50.363Z,1.90
2023-11-01T05:27:21.224Z,2.38
2023-11-01T05:29:48.621Z,1.85
2023-11-01T05:32:16.020Z,1.88
2023-11-01T05:34:43.239Z,1.53
2023-11-01T05:37:13.249Z,1.73
2023-11-01T05:39:41.928Z,1.50
2023-11-01T05:42:12.309Z,1.90
2023-11-01T05:44:39.476Z,1.57
2023-11-01T05:47:06.806Z,1.80
2023-11-01T05:49:34.048Z,1.60
2023-11-01T05:52:01.203Z,1.70
2023-11-01T05:54:30.570Z,1.67
2023-11-01T05:57:00.604Z,1.57
2023-11-01T05:59:28.947Z,1.80
2023-11-01T06:01:56.158Z,1.70
2023-11-01T06:04:23.592Z,1.50
2023-11-01T06:06:50.848Z,1.60
2023-11-01T06:09:20.620Z,1.85
2023-11-01T06:11:47.777Z,1.50
2023-11-01T06:14:15.059Z,1.70
2023-11-01T06:16:42.357Z,1.60
2023-11-01T06:19:09.983Z,2.10
2023-11-01T06:21:37.640Z,1.63
2023-11-01T06:24:05.016Z,1.40
2023-11-01T06:26:34.892Z,1.47
2023-11-01T06:29:02.114Z,1.63
2023-11-01T06:31:29.223Z,1.43
2023-11-01T06:33:56.488Z,1.47
2023-11-01T06:36:24.036Z,1.35
2023-11-01T06:38:54.264Z,1.50
2023-11-01T06:41:21.431Z,1.53
2023-11-01T06:43:50.801Z,1.20
2023-11-01T06:46:18.043Z,1.60
2023-11-01T06:48:45.147Z,1.10
2023-11-01T06:51:12.354Z,1.48
2023-11-01T06:53:39.647Z,1.50
2023-11-01T06:56:06.944Z,1.00
2023-11-01T06:58:34.026Z,1.35
2023-11-01T07:01:01.240Z,1.38
2023-11-01T07:03:28.486Z,1.42
2023-11-01T07:05:56.763Z,1.33
2023-11-01T07:08:24.008Z,1.40
2023-11-01T07:10:51.158Z,1.40
2023-11-01T07:13:20.661Z,1.47
2023-11-01T07:15:48.629Z,1.40
2023-11-01T07:18:19.275Z,1.30
2023-11-01T07:20:46.510Z,1.27
2023-11-01T07:23:13.706Z,1.58
2023-11-01T07:25:46.617Z,1.30
2023-11-01T07:28:16.118Z,1.17
2023-11-01T07:30:43.622Z,1.25
2023-11-01T07:33:11.051Z,1.35
2023-11-01T07:35:38.204Z,1.40
2023-11-01T07:38:05.457Z,1.38
2023-11-01T07:40:32.603Z,1.40
2023-11-01T07:42:59.886Z,1.40
2023-11-01T07:45:27.073Z,1.38
2023-11-01T07:47:54.371Z,1.30
2023-11-01T07:50:21.659Z,1.50
2023-11-01T07:52:48.741Z,1.40
2023-11-01T07:55:15.909Z,1.25
2023-11-01T07:57:43.058Z,1.35
2023-11-01T08:00:11.492Z,1.23
2023-11-01T08:02:38.801Z,1.48
2023-11-01T08:05:07.038Z,1.10
2023-11-01T08:07:34.570Z,1.38
2023-11-01T08:10:02.253Z,1.30
2023-11-01T08:12:29.430Z,1.20
2023-11-01T08:14:56.650Z,1.13
2023-11-01T08:17:23.937Z,1.10
2023-11-01T08:19:51.067Z,1.10
2023-11-01T08:22:18.249Z,1.15
2023-11-01T08:24:45.499Z,1.60
2023-11-01T08:27:12.861Z,1.20
2023-11-01T08:29:43.517Z,1.25
2023-11-01T08:32:11.551Z,1.23
2023-11-01T08:34:38.812Z,1.45
2023-11-01T08:37:05.972Z,1.35
2023-11-01T08:39:36.342Z,1.07
2023-11-01T08:42:03.695Z,1.40
2023-11-01T08:44:30.892Z,1.15
2023-11-01T08:47:06.008Z,1.48
2023-11-01T08:49:33.659Z,1.35
2023-11-01T08:52:00.760Z,1.35
2023-11-01T08:54:27.998Z,1.17
2023-11-01T08:56:58.520Z,1.35
2023-11-01T08:59:28.760Z,1.45
2023-11-01T09:02:05.087Z,1.55
2023-11-01T09:04:37.597Z,1.10
2023-11-01T09:07:04.799Z,1.20
2023-11-01T09:09:33.814Z,1.20
2023-11-01T09:12:00.964Z,1.30
2023-11-01T09:14:28.146Z,1.10
2023-11-01T09:16:55.332Z,0.90
2023-11-01T09:19:22.463Z,1.38
2023-11-01T09:21:49.873Z,0.98
2023-11-01T09:24:16.952Z,1.30
2023-11-01T09:26:46.027Z,1.30
2023-11-01T09:29:14.527Z,1.10
2023-11-01T09:31:41.686Z,0.87
2023-11-01T09:34:08.933Z,1.10
2023-11-01T09:36:36.605Z,1.15
2023-11-01T09:39:04.400Z,1.02
2023-11-01T09:41:36.521Z,0.98
2023-11-01T09:44:04.357Z,1.33
2023-11-01T09:46:31.611Z,1.30
2023-11-01T09:48:59.051Z,1.15
2023-11-01T09:51:26.208Z,1.30
2023-11-01T09:53:53.626Z,1.20
2023-11-01T09:56:24.047Z,1.30
2023-11-01T09:58:51.231Z,1.03
2023-11-01T10:01:21.205Z,1.03
2023-11-01T10:03:48.812Z,1.30
2023-11-01T10:06:20.952Z,1.40
2023-11-01T10:08:51.768Z,1.20
2023-11-01T10:11:20.021Z,1.10
2023-11-01T10:13:47.303Z,1.52
2023-11-01T10:16:17.410Z,1.30
2023-11-01T10:18:45.137Z,1.63
2023-11-01T10:21:12.383Z,1.30
2023-11-01T10:23:42.448Z,1.00
2023-11-01T10:26:09.606Z,1.10
2023-11-01T10:28:45.200Z,1.00
2023-11-01T10:31:15.563Z,1.20
2023-11-01T10:33:42.884Z,1.20
2023-11-01T10:36:10.326Z,1.20
2023-11-01T10:38:39.585Z,1.00
2023-11-01T10:41:06.727Z,1.65
2023-11-01T10:43:34.057Z,1.10
2023-11-01T10:46:02.273Z,1.17
2023-11-01T10:48:30.016Z,1.00
2023-11-01T10:50:58.230Z,1.10
2023-11-01T10:53:26.259Z,1.23
2023-11-01T10:55:56.492Z,1.00
2023-11-01T10:58:25.481Z,1.00
2023-11-01T11:00:59.131Z,0.90
2023-11-01T11:03:26.336Z,0.98
2023-11-01T11:05:54.078Z,1.05
2023-11-01T11:08:24.023Z,1.10
2023-11-01T11:10:51.203Z,0.80
2023-11-01T11:13:18.544Z,0.80
2023-11-01T11:15:49.461Z,0.80
2023-11-01T11:18:19.040Z,0.80
2023-11-01T11:20:46.859Z,0.80
2023-11-01T11:23:15.610Z,0.88
2023-11-01T11:25:45.062Z,0.73
2023-11-01T11:28:13.073Z,0.70
2023-11-01T11:30:46.733Z,0.80
2023-11-01T11:33:18.578Z,0.90
2023-11-01T11:35:45.722Z,0.77
2023-11-01T11:38:33.923Z,0.70
2023-11-01T11:41:14.233Z,0.60
2023-11-01T11:44:00.728Z,0.60
2023-11-01T11:46:32.355Z,0.67
2023-11-01T11:49:00.622Z,0.57
2023-11-01T11:51:31.154Z,0.80
2023-11-01T11:53:58.562Z,0.93
2023-11-01T11:56:28.378Z,0.60
2023-11-01T11:58:58.555Z,0.80
2023-11-01T12:01:31.077Z,0.65
2023-11-01T12:04:04.419Z,0.60
2023-11-01T12:06:42.400Z,0.60
2023-11-01T12:09:23.197Z,0.70
2023-11-01T12:11:54.382Z,0.70
2023-11-01T12:14:22.664Z,0.73
2023-11-01T12:16:50.630Z,0.70
2023-11-01T12:19:19.294Z,0.60
2023-11-01T12:21:56.782Z,1.00
2023-11-01T12:24:29.914Z,0.50
2023-11-01T12:27:10.835Z,0.70
2023-11-01T12:29:41.987Z,0.65
2023-11-01T12:32:13.553Z,1.10
2023-11-01T12:34:41.716Z,0.55
2023-11-01T12:37:19.873Z,0.70
2023-11-01T12:40:06.389Z,0.57
2023-11-01T12:42:34.454Z,0.60
2023-11-01T12:45:02.026Z,0.60
2023-11-01T12:47:41.220Z,0.60
2023-11-01T12:50:08.654Z,0.60
2023-11-01T12:52:38.332Z,0.70
2023-11-01T12:55:09.778Z,0.70
2023-11-01T12:57:38.047Z,0.73
2023-11-01T13:00:05.672Z,0.60
2023-11-01T13:02:32.950Z,0.75
2023-11-01T13:05:00.111Z,0.60
2023-11-01T13:07:29.408Z,0.50
2023-11-01T13:09:56.950Z,0.60
2023-11-01T13:12:24.328Z,0.57
2023-11-01T13:14:51.574Z,0.70
2023-11-01T13:17:18.683Z,0.50
2023-11-01T13:19:45.783Z,0.60
2023-11-01T13:22:12.900Z,0.70
2023-11-01T13:24:40.164Z,0.60
2023-11-01T13:27:10.984Z,0.90
2023-11-01T13:29:44.844Z,0.68
2023-11-01T13:32:12.237Z,0.50
2023-11-01T13:34:39.467Z,0.60
2023-11-01T13:37:09.655Z,0.50
2023-11-01T13:39:36.957Z,0.60
2023-11-01T13:42:04.222Z,0.70
2023-11-01T13:44:31.528Z,0.65
2023-11-01T13:47:01.750Z,0.60
2023-11-01T13:49:29.046Z,0.70
2023-11-01T13:51:56.460Z,0.53
2023-11-01T13:54:23.543Z,0.43
2023-11-01T13:56:50.708Z,0.65
2023-11-01T13:59:17.995Z,0.70
2023-11-01T14:01:45.138Z,0.50
2023-11-01T14:04:15.725Z,0.43
2023-11-01T14:06:43.079Z,0.63
2023-11-01T14:09:12.703Z,0.60
2023-11-01T14:11:39.935Z,0.70
2023-11-01T14:14:07.278Z,0.50
2023-11-01T14:16:34.383Z,0.68
2023-11-01T14:19:01.617Z,0.70
2023-11-01T14:21:30.365Z,0.70
2023-11-01T14:23:59.797Z,0.50
2023-11-01T14:26:27.025Z,0.60
2023-11-01T14:28:55.921Z,0.63
2023-11-01T14:31:26.140Z,0.50
2023-11-01T14:33:54.701Z,0.52
2023-11-01T14:36:22.555Z,0.63
2023-11-01T14:38:49.861Z,0.70
2023-11-01T14:41:17.185Z,0.60
2023-11-01T14:43:47.181Z,0.70
2023-11-01T14:46:14.772Z,0.60
2023-11-01T14:48:44.717Z,0.60
2023-11-01T14:51:12.058Z,0.65
2023-11-01T14:53:39.474Z,0.57
2023-11-01T14:56:11.925Z,0.60
2023-11-01T14:58:39.758Z,0.73
2023-11-01T15:01:10.669Z,0.68
2023-11-01T15:03:40.789Z,0.70
2023-11-01T15:06:08.548Z,0.70
2023-11-01T15:08:35.749Z,0.57
2023-11-01T15:11:05.721Z,0.60
2023-11-01T15:13:32.845Z,0.50
2023-11-01T15:16:01.427Z,0.80
2023-11-01T15:18:29.122Z,0.70
2023-11-01T15:20:56.408Z,0.60
2023-11-01T15:23:23.547Z,0.52
2023-11-01T15:25:50.874Z,0.60
2023-11-01T15:28:18.023Z,0.50
2023-11-01T15:30:45.357Z,0.60
2023-11-01T15:33:12.663Z,0.65
2023-11-01T15:35:40.479Z,0.60
2023-11-01T15:38:07.672Z,0.70
2023-11-01T15:40:34.920Z,0.60
2023-11-01T15:43:03.212Z,0.70
2023-11-01T15:45:30.477Z,0.57
2023-11-01T15:47:57.838Z,0.90
2023-11-01T15:50:25.110Z,0.50
2023-11-01T15:52:52.226Z,0.60
2023-11-01T15:55:19.680Z,0.70
2023-11-01T15:57:46.881Z,0.60
2023-11-01T16:00:14.380Z,0.60
2023-11-01T16:02:41.652Z,0.47
2023-11-01T16:05:12.028Z,0.52
2023-11-01T16:07:39.266Z,0.60
2023-11-01T16:10:06.619Z,0.50
2023-11-01T16:12:33.829Z,0.60
2023-11-01T16:15:01.962Z,0.60
2023-11-01T16:17:31.863Z,0.75
2023-11-01T16:20:04.884Z,0.45
2023-11-01T16:22:37.764Z,0.57
2023-11-01T16:25:05.149Z,0.60
2023-11-01T16:27:35.292Z,0.80
2023-11-01T16:30:02.554Z,0.60
2023-11-01T16:32:30.042Z,0.70
2023-11-01T16:34:57.227Z,0.68
2023-11-01T16:37:24.372Z,0.70
2023-11-01T16:39:52.431Z,0.60
2023-11-01T16:42:19.612Z,0.52
2023-11-01T16:44:46.993Z,0.60
2023-11-01T16:47:14.205Z,0.70
2023-11-01T16:49:45.243Z,0.68
2023-11-01T16:52:12.438Z,0.90
2023-11-01T16:54:40.864Z,0.70
2023-11-01T16:57:08.098Z,1.13
2023-11-01T16:59:35.267Z,1.00
2023-11-01T17:02:03.660Z,0.90
2023-11-01T17:04:31.185Z,0.60
2023-11-01T17:06:59.696Z,0.70
2023-11-01T17:09:26.964Z,0.70
2023-11-01T17:11:54.250Z,0.80
2023-11-01T17:14:21.415Z,0.90
2023-11-01T17:16:48.659Z,0.70
2023-11-01T17:19:16.085Z,0.70
2023-11-01T17:21:45.178Z,0.73
2023-11-01T17:24:13.259Z,0.70
2023-11-01T17:26:40.461Z,0.90
2023-11-01T17:29:08.538Z,1.00
2023-11-01T17:31:37.098Z,0.90
2023-11-01T17:34:04.323Z,0.70
2023-11-01T17:36:39.053Z,0.70
2023-11-01T17:39:08.546Z,0.70
2023-11-01T17:41:54.434Z,1.00
2023-11-01T17:44:24.848Z,0.70
2023-11-01T17:46:56.135Z,0.82
2023-11-01T17:49:40.545Z,0.85
2023-11-01T17:52:07.760Z,0.80
2023-11-01T17:54:35.310Z,0.88
2023-11-01T17:57:03.067Z,0.82
2023-11-01T17:59:30.255Z,0.80
2023-11-01T18:01:57.452Z,0.90
2023-11-01T18:04:24.719Z,0.80
2023-11-01T18:06:52.516Z,0.93
2023-11-01T18:09:20.815Z,0.90
2023-11-01T18:11:48.002Z,0.90
2023-11-01T18:14:15.393Z,0.90
2023-11-01T18:16:42.729Z,0.60
2023-11-01T18:19:10.063Z,0.70
2023-11-01T18:21:38.550Z,0.70
2023-11-01T18:24:14.366Z,0.60
2023-11-01T18:26:43.066Z,0.60
2023-11-01T18:29:11.660Z,0.50
2023-11-01T18:31:41.501Z,0.40
2023-11-01T18:34:24.032Z,0.60
2023-11-01T18:36:53.884Z,0.70
2023-11-01T18:39:22.459Z,0.60
2023-11-01T18:41:49.867Z,0.50
2023-11-01T18:44:21.493Z,0.70
2023-11-01T18:46:48.666Z,0.40
2023-11-01T18:49:24.931Z,0.60
2023-11-01T18:51:59.006Z,0.40
2023-11-01T18:54:36.299Z,0.50
2023-11-01T18:57:05.474Z,0.47
2023-11-01T18:59:32.695Z,0.50
2023-11-01T19:02:00.568Z,0.30
2023-11-01T19:04:30.677Z,0.30
2023-11-01T19:06:57.892Z,0.60
2023-11-01T19:09:25.176Z,0.40
2023-11-01T19:11:52.822Z,0.40
2023-11-01T19:14:20.331Z,0.40
2023-11-01T19:16:47.569Z,0.40
2023-11-01T19:19:18.956Z,0.40
2023-11-01T19:21:46.150Z,0.40
2023-11-01T19:24:13.323Z,0.70
2023-11-01T19:26:40.650Z,0.50
2023-11-01T19:29:09.349Z,0.37
2023-11-01T19:31:36.479Z,0.32
2023-11-01T19:34:03.829Z,0.40
2023-11-01T19:36:31.451Z,0.50
2023-11-01T19:38:58.641Z,0.90
2023-11-01T19:41:25.872Z,0.50
2023-11-01T19:43:59.332Z,0.50
2023-11-01T19:46:26.963Z,0.47
2023-11-01T19:48:54.222Z,0.50
2023-11-01T19:51:24.148Z,0.43
2023-11-01T19:53:53.375Z,0.40
2023-11-01T19:56:20.888Z,0.50
2023-11-01T19:58:48.145Z,0.40
2023-11-01T20:01:15.645Z,0.50
2023-11-01T20:03:42.932Z,0.60
2023-11-01T20:06:10.229Z,0.50
2023-11-01T20:08:37.443Z,0.40
2023-11-01T20:11:04.686Z,0.43
2023-11-01T20:13:31.948Z,0.40
2023-11-01T20:15:59.078Z,0.47
2023-11-01T20:18:28.453Z,0.57
2023-11-01T20:20:55.710Z,0.43
2023-11-01T20:23:26.788Z,0.40
2023-11-01T20:25:54.031Z,0.50
2023-11-01T20:28:23.751Z,0.55
2023-11-01T20:30:52.427Z,0.60
2023-11-01T20:33:19.716Z,0.40
2023-11-01T20:35:47.294Z,0.50
2023-11-01T20:38:14.461Z,0.40
2023-11-01T20:40:44.350Z,0.50
2023-11-01T20:43:14.736Z,0.40
2023-11-01T20:45:47.891Z,0.50
2023-11-01T20:48:15.702Z,0.40
2023-11-01T20:50:48.430Z,0.50
2023-11-01T20:53:15.780Z,0.50
2023-11-01T20:55:42.892Z,0.40
2023-11-01T20:58:10.348Z,0.40
2023-11-01T21:00:37.602Z,0.47
2023-11-01T21:03:05.743Z,0.50
2023-11-01T21:05:37.178Z,0.50
2023-11-01T21:08:04.919Z,0.50
2023-11-01T21:10:32.057Z,0.70
2023-11-01T21:12:59.251Z,0.40
2023-11-01T21:15:26.432Z,0.65
2023-11-01T21:17:56.203Z,0.60
2023-11-01T21:20:23.533Z,0.50
2023-11-01T21:22:50.731Z,0.68
2023-11-01T21:25:20.341Z,0.50
2023-11-01T21:27:47.490Z,0.80
2023-11-01T21:30:15.030Z,0.60
2023-11-01T21:32:42.355Z,0.80
2023-11-01T21:35:09.560Z,0.60
2023-11-01T21:37:38.821Z,0.60
2023-11-01T21:40:10.076Z,0.60
2023-11-01T21:42:42.637Z,0.60
2023-11-01T21:45:12.234Z,0.90
2023-11-01T21:47:40.032Z,0.70
2023-11-01T21:50:27.345Z,0.80
2023-11-01T21:52:54.548Z,0.70
2023-11-01T21:55:40.121Z,0.70
2023-11-01T21:58:13.673Z,0.70
2023-11-01T22:00:53.752Z,0.87
2023-11-01T22:03:42.609Z,0.60
2023-11-01T22:06:16.968Z,0.65
2023-11-01T22:08:44.129Z,0.65
2023-11-01T22:11:14.149Z,0.73
2023-11-01T22:13:41.319Z,0.80
2023-11-01T22:16:12.827Z,0.80
2023-11-01T22:18:39.995Z,0.70
2023-11-01T22:21:07.309Z,0.70
2023-11-01T22:23:41.772Z,0.80
2023-11-01T22:26:09.041Z,0.80
2023-11-01T22:28:36.147Z,0.90
2023-11-01T22:31:07.117Z,0.90
2023-11-01T22:33:34.345Z,0.90
2023-11-01T22:36:01.547Z,0.90
2023-11-01T22:38:28.805Z,1.00
2023-11-01T22:40:59.711Z,0.70
2023-11-01T22:43:26.934Z,0.90
2023-11-01T22:45:58.639Z,0.90
2023-11-01T22:48:25.887Z,0.98
2023-11-01T22:50:53.662Z,0.93
2023-11-01T22:53:20.890Z,0.80
2023-11-01T22:55:48.066Z,0.90
2023-11-01T22:58:16.048Z,0.80
2023-11-01T23:00:43.964Z,0.90
2023-11-01T23:03:13.234Z,1.00
2023-11-01T23:05:40.538Z,0.75
2023-11-01T23:08:07.670Z,0.80
2023-11-01T23:10:36.267Z,1.00
2023-11-01T23:13:03.668Z,1.00
2023-11-01T23:15:32.020Z,0.90
2023-11-01T23:17:59.906Z,1.00
2023-11-01T23:20:28.552Z,1.00
2023-11-01T23:22:56.800Z,1.00
2023-11-01T23:25:31.342Z,0.85
2023-11-01T23:28:09.691Z,1.00
2023-11-01T23:30:37.880Z,0.93
2023-11-01T23:33:14.903Z,0.90
2023-11-01T23:35:46.062Z,1.00
2023-11-01T23:38:14.098Z,0.75
2023-11-01T23:40:41.622Z,0.90
2023-11-01T23:43:14.993Z,0.90
2023-11-01T23:45:42.126Z,0.80
2023-11-01T23:48:10.091Z,0.90
2023-11-01T23:50:39.908Z,0.70
2023-11-01T23:53:09.330Z,1.00
2023-11-01T23:55:36.864Z,0.70
2023-11-01T23:58:04.296Z,0.70
